createdAt,value
2023-09-25T00:08:09.264Z,88.10
2023-09-25T00:16:20.371Z,88.20
2023-09-25T00:24:32.083Z,88.20
2023-09-25T00:32:40.589Z,88.90
2023-09-25T00:40:47.338Z,89.20
2023-09-25T00:48:56.023Z,90.00
2023-09-25T00:57:01.785Z,90.00
2023-09-25T01:05:15.091Z,90.50
2023-09-25T01:13:20.629Z,90.50
2023-09-25T01:21:30.805Z,90.50
2023-09-25T01:29:40.006Z,90.50
2023-09-25T01:37:48.117Z,90.30
2023-09-25T01:46:00.407Z,90.40
2023-09-25T01:54:06.199Z,90.40
2023-09-25T02:02:14.336Z,90.20
2023-09-25T02:10:19.904Z,90.20
2023-09-25T02:18:27.961Z,90.30
2023-09-25T02:26:33.847Z,90.20
2023-09-25T02:34:42.131Z,90.10
2023-09-25T02:42:48.942Z,90.00
2023-09-25T02:50:57.115Z,89.80
2023-09-25T02:59:03.463Z,89.20
2023-09-25T03:07:11.469Z,89.40
2023-09-25T03:15:18.469Z,90.10
2023-09-25T03:23:30.212Z,90.30
2023-09-25T03:31:35.727Z,90.30
2023-09-25T03:39:44.003Z,90.30
2023-09-25T03:47:49.914Z,90.30
2023-09-25T03:55:58.037Z,90.00
2023-09-25T04:04:03.591Z,90.20
2023-09-25T04:12:12.901Z,90.10
2023-09-25T04:20:26.007Z,90.10
2023-09-25T04:28:34.227Z,90.20
2023-09-25T04:36:39.678Z,90.30
2023-09-25T04:44:47.789Z,90.40
2023-09-25T04:52:53.541Z,90.60
2023-09-25T05:01:01.689Z,90.60
2023-09-25T05:09:08.089Z,90.40
2023-09-25T05:17:16.148Z,90.40
2023-09-25T05:25:22.610Z,90.20
2023-09-25T05:33:30.675Z,90.30
2023-09-25T05:41:36.836Z,90.10
2023-09-25T05:49:45.143Z,90.00
2023-09-25T05:57:50.871Z,89.80
2023-09-25T06:05:59.121Z,89.70
2023-09-25T06:14:04.669Z,89.20
2023-09-25T06:22:13.458Z,88.50
2023-09-25T06:30:21.180Z,87.80
2023-09-25T06:38:29.496Z,87.00
2023-09-25T06:46:35.138Z,85.40
2023-09-25T06:54:43.379Z,84.20
2023-09-25T07:02:49.153Z,82.70
2023-09-25T07:10:58.244Z,81.00
2023-09-25T07:19:04.042Z,81.00
2023-09-25T07:27:14.631Z,78.90
2023-09-25T07:35:20.485Z,78.70
2023-09-25T07:51:39.710Z,77.80
2023-09-25T07:59:48.024Z,77.00
2023-09-25T08:07:57.052Z,76.80
2023-09-25T08:16:11.286Z,75.50
2023-09-25T08:24:17.284Z,76.90
2023-09-25T08:32:25.944Z,75.00
2023-09-25T08:40:35.527Z,75.80
2023-09-25T08:48:44.147Z,71.70
2023-09-25T08:56:50.752Z,73.50
2023-09-25T09:04:59.836Z,72.50
2023-09-25T09:13:10.247Z,69.00
2023-09-25T09:21:31.457Z,69.50
2023-09-25T09:29:39.305Z,70.80
2023-09-25T09:37:49.983Z,66.10
2023-09-25T09:45:55.808Z,67.80
2023-09-25T09:54:07.108Z,64.70
2023-09-25T10:02:13.296Z,57.50
2023-09-25T10:10:21.587Z,49.90
2023-09-25T10:18:29.792Z,48.50
2023-09-25T10:26:39.574Z,46.00
2023-09-25T10:34:46.158Z,49.00
2023-09-25T10:42:55.787Z,50.80
2023-09-25T10:51:01.279Z,50.00
2023-09-25T10:59:09.514Z,46.30
2023-09-25T11:07:15.007Z,45.60
2023-09-25T11:15:24.296Z,49.10
2023-09-25T11:23:29.775Z,47.80
2023-09-25T11:31:54.471Z,49.90
2023-09-25T11:40:04.350Z,48.20
2023-09-25T11:48:13.117Z,48.70
2023-09-25T12:22:16.550Z,56.00
2023-09-25T12:30:22.907Z,57.60
2023-09-25T12:38:31.786Z,58.00
2023-09-25T12:46:37.415Z,58.00
2023-09-25T12:54:47.382Z,58.80
2023-09-25T13:02:53.035Z,59.60
2023-09-25T13:11:01.229Z,60.70
2023-09-25T13:19:09.246Z,60.10
2023-09-25T13:27:17.802Z,60.90
2023-09-25T13:35:24.384Z,61.00
2023-09-25T13:43:32.426Z,61.80
2023-09-25T13:51:38.559Z,62.30
2023-09-25T13:59:46.673Z,63.40
2023-09-25T14:07:52.150Z,63.50
2023-09-25T14:16:00.433Z,63.30
2023-09-25T14:24:06.124Z,63.00
2023-09-25T14:32:14.602Z,64.40
2023-09-25T14:40:20.192Z,63.70
2023-09-25T14:48:28.806Z,64.30
2023-09-25T14:56:34.429Z,64.90
2023-09-25T15:04:42.591Z,63.10
2023-09-25T15:12:48.275Z,63.20
2023-09-25T15:20:56.344Z,63.00
2023-09-25T15:29:01.836Z,63.50
2023-09-25T15:37:11.106Z,63.80
2023-09-25T15:45:16.903Z,64.60
2023-09-25T15:53:24.903Z,65.00
2023-09-25T16:01:30.431Z,66.50
2023-09-25T16:09:38.646Z,67.40
2023-09-25T16:17:44.419Z,68.50
2023-09-25T16:25:52.461Z,69.80
2023-09-25T16:33:57.976Z,70.00
2023-09-25T16:42:06.771Z,70.40
2023-09-25T16:50:13.205Z,68.40
2023-09-25T16:58:22.808Z,66.60
2023-09-25T17:06:28.335Z,64.80
2023-09-25T17:14:36.463Z,63.70
2023-09-25T17:22:41.991Z,63.30
2023-09-25T17:31:08.695Z,62.70
2023-09-25T17:39:15.373Z,63.00
2023-09-25T17:47:25.661Z,62.40
2023-09-25T17:55:31.090Z,62.10
2023-09-25T18:03:42.006Z,63.80
2023-09-25T18:11:48.562Z,62.40
2023-09-25T18:19:56.665Z,63.70
2023-09-25T18:28:02.538Z,64.00
2023-09-25T18:36:14.164Z,64.70
2023-09-25T18:44:22.542Z,64.80
2023-09-25T18:52:30.818Z,64.90
2023-09-25T19:00:36.315Z,66.20
2023-09-25T19:08:44.420Z,66.60
2023-09-25T19:16:50.012Z,66.40
2023-09-25T19:24:58.426Z,66.10
2023-09-25T19:33:04.319Z,66.60
2023-09-25T19:41:12.445Z,67.10
2023-09-25T19:49:19.588Z,67.90
2023-09-25T19:57:27.801Z,68.10
2023-09-25T20:05:33.246Z,68.40
2023-09-25T20:13:41.254Z,68.90
2023-09-25T20:21:46.766Z,69.40
2023-09-25T20:29:54.944Z,69.80
2023-09-25T20:38:00.372Z,70.10
2023-09-25T20:46:08.629Z,69.70
2023-09-25T20:54:14.363Z,69.90
2023-09-25T21:02:22.421Z,69.70
2023-09-25T21:10:27.886Z,70.30
2023-09-25T21:18:35.906Z,70.40
2023-09-25T21:26:41.377Z,71.00
2023-09-25T21:34:49.424Z,71.70
2023-09-25T21:42:54.995Z,73.00
2023-09-25T21:51:04.353Z,74.00
2023-09-25T21:59:09.798Z,74.80
2023-09-25T22:07:17.919Z,75.50
2023-09-25T22:15:23.423Z,76.00
2023-09-25T22:23:33.149Z,76.40
2023-09-25T22:31:40.814Z,77.80
2023-09-25T22:39:49.024Z,78.00
2023-09-25T22:47:54.553Z,77.80
2023-09-25T22:56:07.577Z,78.40
2023-09-25T23:04:13.131Z,79.10
2023-09-25T23:12:21.274Z,79.20
2023-09-25T23:20:28.425Z,79.70
2023-09-25T23:28:36.502Z,79.80
2023-09-25T23:36:42.071Z,79.90
2023-09-25T23:44:50.559Z,79.80
2023-09-25T23:52:57.401Z,81.30
